Time;durP1;ratioP1;P1;durP2;ratioP2;P2;SDS_P1;SDS_P2;PMS_P1;PMS_P2;Temp;Humidity;BMP_temperature;BMP_pressure;BME280_temperature;BME280_humidity;BME280_pressure;Samples;Min_cycle;Max_cycle;Signal;HPM_P1;HPM_P2
2023/07/24 00:02:23;;;;;;;;;;;17.80;99.90;;;;;;5118011;27;19915;-46
2023/07/24 00:04:48;;;;;;;;;;;17.80;99.90;;;;;;5121786;27;20358;-46
2023/07/24 00:07:14;;;;;;;;;;;17.80;99.90;;;;;;5115237;28;19950;-44
2023/07/24 00:09:39;;;;;;;;;;;17.80;99.90;;;;;;5115969;28;19908;-44
2023/07/24 00:12:05;;;;;;;;;;;17.90;99.90;;;;;;5115902;28;19915;-44
2023/07/24 00:14:31;;;;;;;;;;;17.80;99.90;;;;;;5115007;28;20308;-45
2023/07/24 00:16:56;;;;;;;;;;;17.90;99.90;;;;;;5115871;28;19916;-44
2023/07/24 00:19:22;;;;;;;;;;;17.90;99.90;;;;;;5115857;28;20359;-45
2023/07/24 00:21:47;;;;;;;;;;;17.90;99.90;;;;;;5115083;28;19908;-46
2023/07/24 00:24:12;;;;;;;;;;;17.90;99.90;;;;;;5115981;28;20416;-43
2023/07/24 00:26:38;;;;;;;;;;;17.90;99.90;;;;;;5115701;28;19908;-45
2023/07/24 00:29:03;;;;;;;;;;;17.90;99.90;;;;;;5114885;28;20030;-43
2023/07/24 00:31:29;;;;;;;;;;;18.00;99.90;;;;;;5115452;27;19960;-48
2023/07/24 00:33:54;;;;;;;;;;;18.00;99.90;;;;;;5115613;28;19919;-48
2023/07/24 00:36:20;;;;;;;;;;;17.90;99.90;;;;;;5114632;28;20002;-44
2023/07/24 00:38:46;;;;;;;;;;;17.90;99.90;;;;;;5115555;28;20251;-43
2023/07/24 00:41:11;;;;;;;;;;;18.00;99.90;;;;;;5115373;28;19908;-44
2023/07/24 00:43:37;;;;;;;;;;;17.90;99.90;;;;;;5114231;27;20447;-44
2023/07/24 00:46:02;;;;;;;;;;;17.90;99.90;;;;;;5115296;28;19915;-46
2023/07/24 00:48:28;;;;;;;;;;;17.90;99.90;;;;;;5114877;28;19976;-44
2023/07/24 00:50:54;;;;;;;;;;;17.90;99.90;;;;;;5114597;28;20328;-44
2023/07/24 00:53:19;;;;;;;;;;;17.80;99.90;;;;;;5115131;28;20278;-45
2023/07/24 00:55:45;;;;;;;;;;;17.80;99.90;;;;;;5115088;28;19907;-43
2023/07/24 00:58:11;;;;;;;;;;;17.80;99.90;;;;;;5114471;28;19916;-44
2023/07/24 01:00:37;;;;;;;;;;;17.70;99.90;;;;;;5114870;28;19912;-44
2023/07/24 01:03:03;;;;;;;;;;;17.70;99.90;;;;;;5122924;27;19912;-48
2023/07/24 01:05:28;;;;;;;;;;;17.70;99.90;;;;;;5114777;28;19907;-45
2023/07/24 01:07:54;;;;;;;;;;;17.60;99.90;;;;;;5114924;28;19908;-43
2023/07/24 01:10:19;;;;;;;;;;;17.60;99.90;;;;;;5113940;28;19949;-44
2023/07/24 01:12:50;;;;;;;;;;;17.60;99.90;;;;;;5117677;27;19908;-45
2023/07/24 01:15:19;;;;;;;;;;;17.60;99.90;;;;;;5156121;27;19911;-44
2023/07/24 01:17:50;;;;;;;;;;;17.50;99.90;;;;;;5155040;27;19915;-45
2023/07/24 01:20:17;;;;;;;;;;;17.50;99.90;;;;;;5155915;27;20027;-44
2023/07/24 01:22:54;;;;;;;;;;;17.50;99.90;;;;;;5152991;27;19926;-42
2023/07/24 01:25:22;;;;;;;;;;;17.40;99.90;;;;;;5113633;28;20278;-44
2023/07/24 01:27:48;;;;;;;;;;;17.40;99.90;;;;;;5114539;28;19908;-45
2023/07/24 01:30:16;;;;;;;;;;;17.40;99.90;;;;;;5114425;28;20049;-44
2023/07/24 01:32:41;;;;;;;;;;;17.40;99.90;;;;;;5113591;27;19953;-45
2023/07/24 01:35:07;;;;;;;;;;;17.30;99.90;;;;;;5114308;28;20309;-46
2023/07/24 01:37:34;;;;;;;;;;;17.30;99.90;;;;;;5114144;28;19927;-43
2023/07/24 01:40:00;;;;;;;;;;;17.30;99.90;;;;;;5114589;27;20068;-44
2023/07/24 01:42:26;;;;;;;;;;;17.30;99.90;;;;;;5113932;28;20397;-44
2023/07/24 01:44:54;;;;;;;;;;;17.20;99.90;;;;;;5114309;28;19907;-44
2023/07/24 01:47:20;;;;;;;;;;;17.20;99.90;;;;;;5113242;28;19918;-43
2023/07/24 01:49:46;;;;;;;;;;;17.20;99.90;;;;;;5114001;28;20007;-43
2023/07/24 01:52:11;;;;;;;;;;;17.20;99.90;;;;;;5114009;28;19908;-44
2023/07/24 01:54:37;;;;;;;;;;;17.20;99.90;;;;;;5113348;28;19953;-44
2023/07/24 01:57:02;;;;;;;;;;;17.20;99.90;;;;;;5113879;28;19951;-48
2023/07/24 01:59:28;;;;;;;;;;;17.30;99.90;;;;;;5112914;28;19908;-43
2023/07/24 02:01:53;;;;;;;;;;;17.30;99.90;;;;;;5117433;27;19915;-45
2023/07/24 02:04:22;;;;;;;;;;;17.30;99.90;;;;;;5134295;27;20285;-44
2023/07/24 02:06:48;;;;;;;;;;;17.30;99.90;;;;;;5133688;27;20336;-43
2023/07/24 02:09:13;;;;;;;;;;;17.30;99.90;;;;;;5134287;27;19907;-43
2023/07/24 02:11:39;;;;;;;;;;;17.30;99.90;;;;;;5134287;27;19960;-45
2023/07/24 02:14:04;;;;;;;;;;;17.30;99.90;;;;;;5132150;27;20369;-49
2023/07/24 02:16:30;;;;;;;;;;;17.30;99.90;;;;;;5113494;28;19930;-44
2023/07/24 02:18:55;;;;;;;;;;;17.30;99.90;;;;;;5113616;28;20008;-44
2023/07/24 02:21:21;;;;;;;;;;;17.30;99.90;;;;;;5112742;28;19988;-43
2023/07/24 02:23:46;;;;;;;;;;;17.30;99.90;;;;;;5113504;28;19914;-46
2023/07/24 02:26:12;;;;;;;;;;;17.30;99.90;;;;;;5113093;28;19911;-44
2023/07/24 02:28:37;;;;;;;;;;;17.30;99.90;;;;;;5112642;28;19908;-43
2023/07/24 02:31:03;;;;;;;;;;;17.30;99.90;;;;;;5113346;28;20003;-45
2023/07/24 02:33:28;;;;;;;;;;;17.20;99.90;;;;;;5113295;28;19908;-43
2023/07/24 02:35:54;;;;;;;;;;;17.20;99.90;;;;;;5131194;27;20006;-43
2023/07/24 02:38:19;;;;;;;;;;;17.20;99.90;;;;;;5133815;27;19938;-43
2023/07/24 02:40:45;;;;;;;;;;;17.20;99.90;;;;;;5133765;27;20296;-46
2023/07/24 02:43:10;;;;;;;;;;;17.20;99.90;;;;;;5132801;27;19927;-44
2023/07/24 02:45:37;;;;;;;;;;;17.10;99.90;;;;;;5133731;27;19908;-44
2023/07/24 02:48:02;;;;;;;;;;;17.10;99.90;;;;;;5133730;27;19952;-44
2023/07/24 02:50:28;;;;;;;;;;;17.20;99.90;;;;;;5132914;28;19911;-43
2023/07/24 02:52:53;;;;;;;;;;;17.10;99.90;;;;;;5133407;28;19933;-43
2023/07/24 02:55:19;;;;;;;;;;;17.20;99.90;;;;;;5133642;28;19929;-43
2023/07/24 02:57:44;;;;;;;;;;;17.20;99.90;;;;;;5132803;28;19915;-49
2023/07/24 03:00:10;;;;;;;;;;;17.20;99.90;;;;;;5133674;28;19915;-44
2023/07/24 03:02:36;;;;;;;;;;;17.20;99.90;;;;;;5133030;28;19907;-53
2023/07/24 03:05:02;;;;;;;;;;;17.20;99.90;;;;;;5133259;28;19918;-43
2023/07/24 03:07:27;;;;;;;;;;;17.20;99.90;;;;;;5133513;28;20044;-42
2023/07/24 03:09:53;;;;;;;;;;;17.20;99.90;;;;;;5132728;28;19943;-44
2023/07/24 03:12:18;;;;;;;;;;;17.10;99.90;;;;;;5135825;27;19912;-43
2023/07/24 03:14:43;;;;;;;;;;;17.20;99.90;;;;;;5137758;27;20278;-43
2023/07/24 03:17:09;;;;;;;;;;;17.10;99.90;;;;;;5136727;27;19915;-44
2023/07/24 03:19:34;;;;;;;;;;;17.20;99.90;;;;;;5119860;27;19911;-46
2023/07/24 03:22:00;;;;;;;;;;;17.20;99.90;;;;;;5117001;28;19998;-45
2023/07/24 03:24:25;;;;;;;;;;;17.20;99.90;;;;;;5116099;28;20324;-44
2023/07/24 03:26:51;;;;;;;;;;;17.20;99.90;;;;;;5116865;28;19908;-44
2023/07/24 03:29:16;;;;;;;;;;;17.20;99.90;;;;;;5116891;28;19915;-43
2023/07/24 03:31:42;;;;;;;;;;;17.10;99.90;;;;;;5115972;28;19959;-44
2023/07/24 03:34:07;;;;;;;;;;;17.10;99.90;;;;;;5116983;28;19907;-43
2023/07/24 03:36:33;;;;;;;;;;;17.10;99.90;;;;;;5116555;28;19923;-46
2023/07/24 03:38:59;;;;;;;;;;;17.10;99.90;;;;;;5116134;28;19908;-46
2023/07/24 03:41:25;;;;;;;;;;;17.10;99.90;;;;;;5116591;28;19914;-46
2023/07/24 03:43:50;;;;;;;;;;;17.10;99.90;;;;;;5116438;27;19923;-43
2023/07/24 03:46:16;;;;;;;;;;;17.10;99.90;;;;;;5115658;28;19919;-44
2023/07/24 03:48:41;;;;;;;;;;;17.10;99.90;;;;;;5116437;28;19908;-44
2023/07/24 03:51:08;;;;;;;;;;;17.10;99.90;;;;;;5116481;28;20496;-45
2023/07/24 03:53:35;;;;;;;;;;;17.10;99.90;;;;;;5114819;28;20389;-44
2023/07/24 03:56:01;;;;;;;;;;;17.10;99.90;;;;;;5116224;28;20405;-44
2023/07/24 03:58:26;;;;;;;;;;;17.00;99.90;;;;;;5116177;28;19922;-43
2023/07/24 04:00:52;;;;;;;;;;;17.10;99.90;;;;;;5115644;28;19908;-44
2023/07/24 04:03:17;;;;;;;;;;;17.00;99.90;;;;;;5116080;28;19907;-44
2023/07/24 04:05:42;;;;;;;;;;;17.00;99.90;;;;;;5116191;28;20414;-44
2023/07/24 04:08:08;;;;;;;;;;;17.00;99.90;;;;;;5115438;28;19930;-43
2023/07/24 04:10:33;;;;;;;;;;;17.00;99.90;;;;;;5116070;28;20002;-45
2023/07/24 04:12:59;;;;;;;;;;;17.00;99.90;;;;;;5126246;27;19908;-43
2023/07/24 04:15:24;;;;;;;;;;;17.00;99.90;;;;;;5136433;27;19918;-47
2023/07/24 04:17:50;;;;;;;;;;;17.00;99.90;;;;;;5136380;27;19924;-44
2023/07/24 04:20:15;;;;;;;;;;;17.00;99.90;;;;;;5135615;27;20317;-44
2023/07/24 04:22:41;;;;;;;;;;;17.00;99.90;;;;;;5136072;27;20349;-45
2023/07/24 04:25:06;;;;;;;;;;;17.00;99.90;;;;;;5135939;27;19952;-43
2023/07/24 04:27:32;;;;;;;;;;;17.00;99.90;;;;;;5135502;27;20282;-44
2023/07/24 04:29:57;;;;;;;;;;;17.00;99.90;;;;;;5130061;27;19915;-44
2023/07/24 04:32:23;;;;;;;;;;;17.00;99.90;;;;;;5124009;27;20273;-43
2023/07/24 04:34:48;;;;;;;;;;;17.10;99.90;;;;;;5123886;27;19908;-43
2023/07/24 04:37:14;;;;;;;;;;;17.10;99.90;;;;;;5133145;27;19919;-46
2023/07/24 04:39:39;;;;;;;;;;;17.10;99.90;;;;;;5127016;27;19911;-44
2023/07/24 04:42:05;;;;;;;;;;;17.10;99.90;;;;;;5121156;27;19920;-43
2023/07/24 04:44:31;;;;;;;;;;;17.10;99.90;;;;;;5128175;27;19915;-47
2023/07/24 04:46:57;;;;;;;;;;;17.10;99.90;;;;;;5115848;27;19961;-45
2023/07/24 04:49:24;;;;;;;;;;;17.10;99.90;;;;;;5114407;28;19912;-46
2023/07/24 04:51:50;;;;;;;;;;;17.10;99.90;;;;;;5115382;27;19908;-45
2023/07/24 04:54:16;;;;;;;;;;;17.20;99.90;;;;;;5126560;27;20069;-44
2023/07/24 04:56:41;;;;;;;;;;;17.20;99.90;;;;;;5114336;28;20024;-45
2023/07/24 04:59:07;;;;;;;;;;;17.20;99.90;;;;;;5121094;27;20359;-45
2023/07/24 05:01:32;;;;;;;;;;;17.10;99.90;;;;;;5122824;27;19912;-45
2023/07/24 05:03:58;;;;;;;;;;;17.20;99.90;;;;;;5118373;27;20437;-43
2023/07/24 05:06:23;;;;;;;;;;;17.10;99.90;;;;;;5134391;27;19933;-44
2023/07/24 05:08:49;;;;;;;;;;;17.10;99.90;;;;;;5134705;27;19907;-43
2023/07/24 05:11:14;;;;;;;;;;;17.10;99.90;;;;;;5131732;27;19918;-45
2023/07/24 05:13:40;;;;;;;;;;;17.20;99.90;;;;;;5134849;27;20400;-43
2023/07/24 05:16:05;;;;;;;;;;;17.20;99.90;;;;;;5133730;27;20369;-44
2023/07/24 05:18:31;;;;;;;;;;;17.10;99.90;;;;;;5133461;27;19915;-43
2023/07/24 05:20:56;;;;;;;;;;;17.20;99.90;;;;;;5131452;27;19916;-43
2023/07/24 05:23:22;;;;;;;;;;;17.20;99.90;;;;;;5133444;27;19915;-43
2023/07/24 05:25:55;;;;;;;;;;;17.20;99.90;;;;;;5134242;27;19959;-44
2023/07/24 05:28:21;;;;;;;;;;;17.20;99.90;;;;;;5131840;27;19912;-43
2023/07/24 05:30:46;;;;;;;;;;;17.20;99.90;;;;;;5133300;27;19919;-43
2023/07/24 05:33:12;;;;;;;;;;;17.20;99.90;;;;;;5134156;27;19914;-43
2023/07/24 05:35:37;;;;;;;;;;;17.30;99.90;;;;;;5133107;27;21108;-43
2023/07/24 05:38:03;;;;;;;;;;;17.30;99.90;;;;;;5131072;27;19958;-47
2023/07/24 05:40:28;;;;;;;;;;;17.40;99.90;;;;;;5128258;27;19911;-43
2023/07/24 05:42:54;;;;;;;;;;;17.40;99.90;;;;;;5131476;27;19919;-44
2023/07/24 05:45:19;;;;;;;;;;;17.40;99.90;;;;;;5113621;28;19938;-44
2023/07/24 05:47:45;;;;;;;;;;;17.40;99.90;;;;;;5114328;28;19908;-43
2023/07/24 05:50:13;;;;;;;;;;;17.50;99.90;;;;;;5114758;27;19922;-43
2023/07/24 05:52:38;;;;;;;;;;;17.50;99.90;;;;;;5133760;27;20006;-45
2023/07/24 05:55:04;;;;;;;;;;;17.50;99.90;;;;;;5134492;27;19958;-44
2023/07/24 05:57:29;;;;;;;;;;;17.60;99.90;;;;;;5134419;27;19915;-44
2023/07/24 05:59:55;;;;;;;;;;;17.60;99.90;;;;;;5133703;27;20404;-44
2023/07/24 06:02:21;;;;;;;;;;;17.60;99.90;;;;;;5114599;27;19912;-44
2023/07/24 06:04:47;;;;;;;;;;;17.60;99.90;;;;;;5113845;28;19908;-43
2023/07/24 06:07:12;;;;;;;;;;;17.60;99.90;;;;;;5113125;28;19912;-45
2023/07/24 06:09:37;;;;;;;;;;;17.60;99.90;;;;;;5116734;27;20358;-44
2023/07/24 06:12:03;;;;;;;;;;;17.60;99.90;;;;;;5132433;27;19921;-45
2023/07/24 06:14:29;;;;;;;;;;;17.60;99.90;;;;;;5132291;27;19919;-43
2023/07/24 06:16:54;;;;;;;;;;;17.60;99.90;;;;;;5134167;27;19950;-45
2023/07/24 06:19:21;;;;;;;;;;;17.60;99.90;;;;;;5117625;27;19912;-44
2023/07/24 06:21:46;;;;;;;;;;;17.50;99.90;;;;;;5123118;27;20377;-44
2023/07/24 06:24:13;;;;;;;;;;;17.60;99.90;;;;;;5123680;27;19912;-44
2023/07/24 06:26:38;;;;;;;;;;;17.50;99.90;;;;;;5127966;27;19935;-43
2023/07/24 06:29:04;;;;;;;;;;;17.50;99.90;;;;;;5119603;27;20390;-44
2023/07/24 06:31:29;;;;;;;;;;;17.50;99.90;;;;;;5124109;27;19976;-43
2023/07/24 06:33:55;;;;;;;;;;;17.50;99.90;;;;;;5120991;27;19915;-45
2023/07/24 06:36:20;;;;;;;;;;;17.50;99.90;;;;;;5117704;27;20018;-43
2023/07/24 06:38:47;;;;;;;;;;;17.60;99.90;;;;;;5128299;27;20328;-44
2023/07/24 06:41:15;;;;;;;;;;;17.70;99.90;;;;;;5117991;27;20396;-44
2023/07/24 06:43:41;;;;;;;;;;;17.80;99.90;;;;;;5117530;27;20083;-44
2023/07/24 06:46:06;;;;;;;;;;;17.90;99.90;;;;;;5112940;28;19934;-44
2023/07/24 06:48:32;;;;;;;;;;;18.10;99.90;;;;;;5114536;27;19996;-43
2023/07/24 06:50:57;;;;;;;;;;;18.10;99.90;;;;;;5114379;28;19912;-42
2023/07/24 06:53:23;;;;;;;;;;;18.20;99.90;;;;;;5109180;28;19912;-43
2023/07/24 06:55:48;;;;;;;;;;;18.30;99.90;;;;;;5113463;28;19916;-44
2023/07/24 06:58:14;;;;;;;;;;;18.40;99.90;;;;;;5116980;28;19968;-43
2023/07/24 07:00:39;;;;;;;;;;;18.40;99.90;;;;;;5115265;28;20262;-45
2023/07/24 07:03:05;;;;;;;;;;;18.50;99.90;;;;;;5132633;28;19912;-48
2023/07/24 07:05:31;;;;;;;;;;;18.60;99.90;;;;;;5133537;28;20100;-44
2023/07/24 07:07:57;;;;;;;;;;;18.70;99.90;;;;;;5133541;28;19908;-45
2023/07/24 07:10:22;;;;;;;;;;;18.70;99.90;;;;;;5132782;28;20415;-43
2023/07/24 07:12:48;;;;;;;;;;;18.80;99.90;;;;;;5131593;28;19918;-44
2023/07/24 07:15:13;;;;;;;;;;;18.80;99.90;;;;;;5128233;28;19912;-43
2023/07/24 07:17:39;;;;;;;;;;;18.90;99.90;;;;;;5131927;28;20281;-43
2023/07/24 07:20:05;;;;;;;;;;;18.90;99.90;;;;;;5131768;28;19915;-43
2023/07/24 07:22:31;;;;;;;;;;;18.90;99.90;;;;;;5131506;28;20448;-43
2023/07/24 07:24:56;;;;;;;;;;;18.90;99.90;;;;;;5131970;28;19995;-44
2023/07/24 07:27:22;;;;;;;;;;;19.00;99.90;;;;;;5127341;28;20293;-44
2023/07/24 07:29:47;;;;;;;;;;;19.00;99.90;;;;;;5127567;28;19963;-45
2023/07/24 07:32:13;;;;;;;;;;;19.00;99.90;;;;;;5126386;28;19918;-43
2023/07/24 07:34:39;;;;;;;;;;;19.10;99.90;;;;;;5129914;28;19951;-43
2023/07/24 07:37:05;;;;;;;;;;;19.20;99.90;;;;;;5131350;28;19962;-44
2023/07/24 07:39:31;;;;;;;;;;;19.30;99.90;;;;;;5128047;28;19968;-46
2023/07/24 07:41:56;;;;;;;;;;;19.30;99.90;;;;;;5121535;28;19949;-46
2023/07/24 07:44:21;;;;;;;;;;;19.40;99.90;;;;;;5125351;28;19911;-44
2023/07/24 07:46:47;;;;;;;;;;;19.40;99.90;;;;;;5124378;28;20358;-43
2023/07/24 07:49:13;;;;;;;;;;;19.40;99.90;;;;;;5125162;28;19957;-47
2023/07/24 07:51:38;;;;;;;;;;;19.50;99.90;;;;;;5120669;28;19911;-43
2023/07/24 07:54:04;;;;;;;;;;;19.50;99.90;;;;;;5126105;28;20153;-44
2023/07/24 07:56:29;;;;;;;;;;;19.60;99.90;;;;;;5126166;28;20027;-43
2023/07/24 07:58:55;;;;;;;;;;;19.60;99.90;;;;;;5125297;27;19915;-43
2023/07/24 08:01:20;;;;;;;;;;;19.60;99.90;;;;;;5135466;27;19908;-43
2023/07/24 08:03:46;;;;;;;;;;;19.50;99.90;;;;;;5136648;27;19908;-44
2023/07/24 08:06:12;;;;;;;;;;;19.60;99.90;;;;;;5121557;27;20290;-44
2023/07/24 08:08:37;;;;;;;;;;;19.60;99.90;;;;;;5127878;27;19912;-44
2023/07/24 08:11:04;;;;;;;;;;;19.60;99.90;;;;;;5126509;27;19911;-47
2023/07/24 08:13:29;;;;;;;;;;;19.70;99.90;;;;;;5124520;27;19942;-49
2023/07/24 08:15:55;;;;;;;;;;;19.70;99.90;;;;;;5130204;27;19916;-43
2023/07/24 08:18:20;;;;;;;;;;;19.70;99.90;;;;;;5123915;27;19955;-44
2023/07/24 08:20:45;;;;;;;;;;;19.80;99.90;;;;;;5128010;27;19915;-46
2023/07/24 08:23:11;;;;;;;;;;;19.80;99.90;;;;;;5137075;27;19950;-47
2023/07/24 08:25:36;;;;;;;;;;;20.00;99.90;;;;;;5126542;27;20351;-44
2023/07/24 08:28:03;;;;;;;;;;;20.00;99.90;;;;;;5127776;27;20010;-44
2023/07/24 08:30:28;;;;;;;;;;;20.10;99.90;;;;;;5123182;27;20005;-44
2023/07/24 08:32:54;;;;;;;;;;;20.20;99.90;;;;;;5128026;27;20034;-45
2023/07/24 08:35:19;;;;;;;;;;;20.20;99.90;;;;;;5126567;27;19981;-48
2023/07/24 08:37:45;;;;;;;;;;;20.20;99.90;;;;;;5119222;27;20454;-43
2023/07/24 08:40:11;;;;;;;;;;;20.20;99.90;;;;;;5127114;27;19993;-48
2023/07/24 08:42:42;;;;;;;;;;;20.20;99.90;;;;;;5127916;27;20247;-44
2023/07/24 08:45:11;;;;;;;;;;;20.30;99.90;;;;;;5127331;27;19918;-43
2023/07/24 08:47:37;;;;;;;;;;;20.30;99.90;;;;;;5116211;27;19912;-44
2023/07/24 08:50:03;;;;;;;;;;;20.40;99.90;;;;;;5114885;28;20366;-44
2023/07/24 08:52:30;;;;;;;;;;;20.50;99.90;;;;;;5135869;27;19914;-44
2023/07/24 08:54:57;;;;;;;;;;;20.50;99.90;;;;;;5115026;27;20286;-43
2023/07/24 08:57:23;;;;;;;;;;;20.50;99.90;;;;;;5115103;28;19916;-45
2023/07/24 08:59:49;;;;;;;;;;;20.40;99.90;;;;;;5126177;27;19911;-45
2023/07/24 09:02:14;;;;;;;;;;;20.30;99.90;;;;;;5134987;27;19932;-42
2023/07/24 09:04:40;;;;;;;;;;;20.30;99.90;;;;;;5135619;27;20370;-45
2023/07/24 09:07:07;;;;;;;;;;;20.30;99.90;;;;;;5135634;27;19936;-45
2023/07/24 09:09:32;;;;;;;;;;;20.40;99.90;;;;;;5130736;27;19908;-45
2023/07/24 09:12:00;;;;;;;;;;;20.40;99.90;;;;;;5114976;28;19911;-43
2023/07/24 09:14:30;;;;;;;;;;;20.40;99.90;;;;;;5114837;28;19908;-45
2023/07/24 09:17:06;;;;;;;;;;;20.50;99.90;;;;;;5113978;28;19916;-44
2023/07/24 09:19:31;;;;;;;;;;;20.70;99.90;;;;;;5114745;28;19918;-43
2023/07/24 09:22:07;;;;;;;;;;;20.80;99.90;;;;;;5114652;28;19908;-43
2023/07/24 09:24:32;;;;;;;;;;;21.00;99.90;;;;;;5113846;28;19915;-44
2023/07/24 09:26:58;;;;;;;;;;;21.10;99.90;;;;;;5114754;28;19908;-44
2023/07/24 09:29:29;;;;;;;;;;;21.10;99.90;;;;;;5114522;28;20354;-43
2023/07/24 09:31:55;;;;;;;;;;;21.00;99.90;;;;;;5114548;28;19915;-44
2023/07/24 09:34:20;;;;;;;;;;;20.90;99.90;;;;;;5114436;28;19908;-43
2023/07/24 09:36:46;;;;;;;;;;;20.90;99.90;;;;;;5113588;28;19966;-43
2023/07/24 09:39:11;;;;;;;;;;;20.90;99.90;;;;;;5114187;27;19965;-43
2023/07/24 09:41:40;;;;;;;;;;;20.90;99.90;;;;;;5134127;27;19919;-47
2023/07/24 09:44:06;;;;;;;;;;;20.90;99.90;;;;;;5134101;27;20358;-45
2023/07/24 09:46:32;;;;;;;;;;;20.90;99.90;;;;;;5134733;27;19951;-46
2023/07/24 09:48:58;;;;;;;;;;;20.70;99.90;;;;;;5134651;27;19960;-45
2023/07/24 09:51:24;;;;;;;;;;;20.60;99.90;;;;;;5133268;27;19912;-44
2023/07/24 09:54:08;;;;;;;;;;;20.60;99.90;;;;;;5134670;27;19914;-43
2023/07/24 09:56:34;;;;;;;;;;;20.50;99.90;;;;;;5134481;27;20281;-46
2023/07/24 09:59:01;;;;;;;;;;;20.40;99.90;;;;;;5133851;27;19914;-44
2023/07/24 10:01:27;;;;;;;;;;;20.50;99.90;;;;;;5134433;27;19907;-45
2023/07/24 10:03:53;;;;;;;;;;;20.60;99.90;;;;;;5134425;27;19914;-43
2023/07/24 10:06:18;;;;;;;;;;;20.90;99.90;;;;;;5133560;27;19930;-44
2023/07/24 10:08:44;;;;;;;;;;;21.20;99.90;;;;;;5134394;27;20277;-45
2023/07/24 10:11:13;;;;;;;;;;;21.40;99.90;;;;;;5117710;27;19912;-44
2023/07/24 10:13:40;;;;;;;;;;;21.60;99.90;;;;;;5112971;28;19914;-43
2023/07/24 10:16:06;;;;;;;;;;;21.70;99.90;;;;;;5113748;28;19907;-44
2023/07/24 10:18:33;;;;;;;;;;;21.80;99.90;;;;;;5113647;28;19919;-43
2023/07/24 10:21:03;;;;;;;;;;;21.90;99.90;;;;;;5112314;28;19953;-43
2023/07/24 10:23:28;;;;;;;;;;;21.80;99.90;;;;;;5118994;27;19918;-44
2023/07/24 10:25:54;;;;;;;;;;;21.90;99.90;;;;;;5119629;27;19907;-45
2023/07/24 10:28:29;;;;;;;;;;;21.80;99.90;;;;;;5121517;27;19915;-44
2023/07/24 10:30:58;;;;;;;;;;;21.90;99.90;;;;;;5128892;27;19912;-43
2023/07/24 10:33:24;;;;;;;;;;;22.00;99.90;;;;;;5119567;27;19976;-54
2023/07/24 10:35:52;;;;;;;;;;;22.20;99.90;;;;;;5122384;27;20362;-44
2023/07/24 10:38:18;;;;;;;;;;;22.30;99.90;;;;;;5113966;28;19927;-46
2023/07/24 10:40:50;;;;;;;;;;;22.20;99.90;;;;;;5126562;27;19912;-44
2023/07/24 10:43:20;;;;;;;;;;;22.20;99.90;;;;;;5112581;28;19919;-43
2023/07/24 10:45:53;;;;;;;;;;;22.20;99.90;;;;;;5133864;27;19951;-43
2023/07/24 10:48:19;;;;;;;;;;;22.20;99.90;;;;;;5132758;27;19960;-42
2023/07/24 10:50:46;;;;;;;;;;;22.40;99.90;;;;;;5127480;27;19919;-44
2023/07/24 10:53:13;;;;;;;;;;;22.40;99.90;;;;;;5125938;28;19915;-44
2023/07/24 10:55:38;;;;;;;;;;;22.40;99.90;;;;;;5133174;28;19964;-45
2023/07/24 10:58:05;;;;;;;;;;;22.50;99.90;;;;;;5133223;28;19919;-44
2023/07/24 11:00:30;;;;;;;;;;;22.60;99.90;;;;;;5116433;28;19912;-42
2023/07/24 11:02:56;;;;;;;;;;;22.70;99.90;;;;;;5110568;28;19917;-42
2023/07/24 11:05:22;;;;;;;;;;;22.60;99.90;;;;;;5112236;28;19916;-45
2023/07/24 11:07:48;;;;;;;;;;;22.60;99.90;;;;;;5129868;28;20042;-45
2023/07/24 11:10:15;;;;;;;;;;;22.50;99.90;;;;;;5132731;28;19911;-44
2023/07/24 11:12:40;;;;;;;;;;;22.50;99.90;;;;;;5133466;28;20358;-44
2023/07/24 11:15:06;;;;;;;;;;;22.60;99.90;;;;;;5132473;28;19912;-46
2023/07/24 11:17:40;;;;;;;;;;;22.70;99.90;;;;;;5132964;28;20023;-43
2023/07/24 11:20:15;;;;;;;;;;;22.80;99.90;;;;;;5127375;28;20014;-45
2023/07/24 11:22:42;;;;;;;;;;;22.80;99.90;;;;;;5126224;28;19923;-43
2023/07/24 11:25:09;;;;;;;;;;;22.80;99.90;;;;;;5123756;28;19960;-45
2023/07/24 11:27:42;;;;;;;;;;;22.80;99.90;;;;;;5117667;28;19991;-45
2023/07/24 11:30:08;;;;;;;;;;;22.80;99.90;;;;;;5123201;27;20010;-44
2023/07/24 11:32:33;;;;;;;;;;;22.70;99.90;;;;;;5144764;27;20022;-45
2023/07/24 11:34:59;;;;;;;;;;;22.70;99.90;;;;;;5157912;27;19907;-43
2023/07/24 11:37:25;;;;;;;;;;;22.80;99.90;;;;;;5156812;27;19916;-42
2023/07/24 11:40:08;;;;;;;;;;;22.80;99.90;;;;;;5132971;27;19927;-45
2023/07/24 11:42:36;;;;;;;;;;;22.70;99.90;;;;;;5136678;27;20365;-44
2023/07/24 11:45:02;;;;;;;;;;;22.70;99.90;;;;;;5129664;27;19922;-47
2023/07/24 11:47:29;;;;;;;;;;;22.60;99.90;;;;;;5134790;27;19907;-45
2023/07/24 11:49:59;;;;;;;;;;;22.40;99.90;;;;;;5134153;27;19927;-43
2023/07/24 11:52:24;;;;;;;;;;;22.30;99.90;;;;;;5122944;27;20365;-44
2023/07/24 11:55:01;;;;;;;;;;;22.20;99.90;;;;;;5136700;27;19908;-44
2023/07/24 11:57:27;;;;;;;;;;;22.10;99.90;;;;;;5135783;27;20005;-44
2023/07/24 11:59:53;;;;;;;;;;;22.10;99.90;;;;;;5130453;27;19915;-43
2023/07/24 12:02:19;;;;;;;;;;;22.20;99.90;;;;;;5136757;27;19908;-45
2023/07/24 12:04:44;;;;;;;;;;;22.30;99.90;;;;;;5135902;27;19908;-43
2023/07/24 12:07:10;;;;;;;;;;;22.40;99.90;;;;;;5136301;27;20024;-46
2023/07/24 12:09:35;;;;;;;;;;;22.40;99.90;;;;;;5137016;27;19998;-44
2023/07/24 12:12:03;;;;;;;;;;;22.40;99.90;;;;;;5136874;27;20045;-45
2023/07/24 12:14:28;;;;;;;;;;;22.50;99.90;;;;;;5137281;27;19914;-43
2023/07/24 12:17:03;;;;;;;;;;;22.60;99.90;;;;;;5137196;27;19916;-42
2023/07/24 12:19:28;;;;;;;;;;;22.70;99.90;;;;;;5132319;27;19915;-43
2023/07/24 12:21:54;;;;;;;;;;;22.80;99.90;;;;;;5124762;27;20037;-43
2023/07/24 12:24:19;;;;;;;;;;;22.90;99.90;;;;;;5116581;27;20274;-44
2023/07/24 12:26:45;;;;;;;;;;;23.00;99.90;;;;;;5115921;27;19912;-44
2023/07/24 12:29:11;;;;;;;;;;;23.10;99.90;;;;;;5119252;27;19968;-45
2023/07/24 12:31:36;;;;;;;;;;;23.10;99.90;;;;;;5118616;27;19911;-44
2023/07/24 12:34:01;;;;;;;;;;;23.20;99.90;;;;;;5114880;28;19916;-43
2023/07/24 12:36:27;;;;;;;;;;;23.20;99.90;;;;;;5123731;27;19916;-43
2023/07/24 12:38:53;;;;;;;;;;;23.30;99.90;;;;;;5117948;27;19957;-44
2023/07/24 12:41:19;;;;;;;;;;;23.30;99.90;;;;;;5114273;27;20002;-43
2023/07/24 12:43:44;;;;;;;;;;;23.20;99.90;;;;;;5133074;27;20011;-42
2023/07/24 12:46:10;;;;;;;;;;;23.30;99.90;;;;;;5121565;27;19938;-45
2023/07/24 12:48:36;;;;;;;;;;;23.40;99.90;;;;;;5116170;27;20385;-44
2023/07/24 12:51:01;;;;;;;;;;;23.30;99.90;;;;;;5121733;27;19916;-43
2023/07/24 12:53:27;;;;;;;;;;;23.20;99.90;;;;;;5115529;28;19911;-45
2023/07/24 12:55:52;;;;;;;;;;;23.20;99.90;;;;;;5118252;27;19961;-43
2023/07/24 12:58:18;;;;;;;;;;;23.10;99.90;;;;;;5121212;27;19926;-44
2023/07/24 13:00:43;;;;;;;;;;;23.00;99.90;;;;;;5119834;27;19994;-44
2023/07/24 13:03:09;;;;;;;;;;;22.80;99.90;;;;;;5120943;27;19908;-44
2023/07/24 13:05:34;;;;;;;;;;;22.70;99.90;;;;;;5114482;27;19912;-44
2023/07/24 13:08:00;;;;;;;;;;;22.70;99.90;;;;;;5116390;27;19908;-43
2023/07/24 13:10:25;;;;;;;;;;;22.90;99.90;;;;;;5119184;27;19912;-43
2023/07/24 13:12:51;;;;;;;;;;;22.80;99.90;;;;;;5120831;27;20415;-44
2023/07/24 13:15:16;;;;;;;;;;;22.70;99.90;;;;;;5131131;27;19908;-44
2023/07/24 13:17:42;;;;;;;;;;;22.50;99.90;;;;;;5122412;27;19924;-48
2023/07/24 13:20:07;;;;;;;;;;;22.40;99.90;;;;;;5124412;27;20274;-44
2023/07/24 13:22:33;;;;;;;;;;;22.50;99.90;;;;;;5118948;27;19919;-44
2023/07/24 13:24:58;;;;;;;;;;;22.60;99.90;;;;;;5116775;27;20392;-43
2023/07/24 13:27:24;;;;;;;;;;;22.80;99.90;;;;;;5121065;27;19990;-47
2023/07/24 13:29:49;;;;;;;;;;;22.70;99.90;;;;;;5120841;27;20289;-44
2023/07/24 13:32:16;;;;;;;;;;;22.40;99.90;;;;;;5114440;28;19911;-45
2023/07/24 13:34:41;;;;;;;;;;;22.10;99.90;;;;;;5124061;27;19907;-44
2023/07/24 13:37:07;;;;;;;;;;;21.80;99.90;;;;;;5125350;27;20289;-44
2023/07/24 13:39:34;;;;;;;;;;;21.40;99.90;;;;;;5134929;27;20365;-41
2023/07/24 13:41:59;;;;;;;;;;;20.90;99.90;;;;;;5123434;27;20427;-44
2023/07/24 13:44:25;;;;;;;;;;;20.50;99.90;;;;;;5131255;27;19907;-43
2023/07/24 13:46:51;;;;;;;;;;;20.20;99.90;;;;;;5114234;28;19998;-44
2023/07/24 13:49:16;;;;;;;;;;;20.00;99.90;;;;;;5122223;27;19956;-47
2023/07/24 13:51:42;;;;;;;;;;;19.90;99.90;;;;;;5123511;27;20305;-44
2023/07/24 13:54:07;;;;;;;;;;;19.70;99.90;;;;;;5132596;27;19915;-42
2023/07/24 13:56:35;;;;;;;;;;;19.60;99.90;;;;;;5118747;27;19915;-44
2023/07/24 13:59:01;;;;;;;;;;;19.40;99.90;;;;;;5114868;27;19908;-42
2023/07/24 14:01:26;;;;;;;;;;;19.30;99.90;;;;;;5114247;28;19908;-44
2023/07/24 14:03:52;;;;;;;;;;;19.20;99.90;;;;;;5118082;27;20371;-42
2023/07/24 14:06:17;;;;;;;;;;;19.20;99.90;;;;;;5133294;27;19912;-43
2023/07/24 14:08:43;;;;;;;;;;;19.20;99.90;;;;;;5116632;27;19969;-43
2023/07/24 14:11:08;;;;;;;;;;;19.10;99.90;;;;;;5113581;28;19912;-46